sensor_id;sensor_type;location;lat;lon;timestamp;P1;durP1;ratioP1;P2;durP2;ratioP2
9799;SDS011;4939;52.00085300;4.17406100;2023-07-20T00:01:09;1.90;;;1.50;;
9799;SDS011;4939;52.00085300;4.17406100;2023-07-20T00:03:34;3.08;;;1.20;;
9799;SDS011;4939;52.00085300;4.17406100;2023-07-20T00:06:00;3.28;;;1.17;;
9799;SDS011;4939;52.00085300;4.17406100;2023-07-20T00:08:26;1.60;;;1.00;;
9799;SDS011;4939;52.00085300;4.17406100;2023-07-20T00:10:51;3.42;;;0.90;;
9799;SDS011;4939;52.00085300;4.17406100;2023-07-20T00:13:18;1.77;;;0.60;;
9799;SDS011;4939;52.00085300;4.17406100;2023-07-20T00:15:46;2.67;;;0.60;;
9799;SDS011;4939;52.00085300;4.17406100;2023-07-20T00:18:12;1.45;;;0.50;;
9799;SDS011;4939;52.00085300;4.17406100;2023-07-20T00:20:38;0.73;;;0.40;;
9799;SDS011;4939;52.00085300;4.17406100;2023-07-20T00:23:04;2.00;;;0.30;;
9799;SDS011;4939;52.00085300;4.17406100;2023-07-20T00:25:30;1.10;;;0.40;;
9799;SDS011;4939;52.00085300;4.17406100;2023-07-20T00:27:55;0.55;;;0.30;;
9799;SDS011;4939;52.00085300;4.17406100;2023-07-20T00:30:21;1.08;;;0.30;;
9799;SDS011;4939;52.00085300;4.17406100;2023-07-20T00:32:47;0.80;;;0.30;;
9799;SDS011;4939;52.00085300;4.17406100;2023-07-20T00:35:12;1.45;;;0.50;;
9799;SDS011;4939;52.00085300;4.17406100;2023-07-20T00:37:39;0.40;;;0.30;;
9799;SDS011;4939;52.00085300;4.17406100;2023-07-20T00:40:06;0.50;;;0.20;;
9799;SDS011;4939;52.00085300;4.17406100;2023-07-20T00:42:36;0.60;;;0.30;;
9799;SDS011;4939;52.00085300;4.17406100;2023-07-20T00:45:02;1.15;;;0.30;;
9799;SDS011;4939;52.00085300;4.17406100;2023-07-20T00:47:28;0.60;;;0.30;;
9799;SDS011;4939;52.00085300;4.17406100;2023-07-20T00:49:53;2.80;;;0.63;;
9799;SDS011;4939;52.00085300;4.17406100;2023-07-20T00:52:23;1.42;;;0.50;;
9799;SDS011;4939;52.00085300;4.17406100;2023-07-20T00:54:50;0.73;;;0.30;;
9799;SDS011;4939;52.00085300;4.17406100;2023-07-20T00:57:17;2.10;;;0.40;;
9799;SDS011;4939;52.00085300;4.17406100;2023-07-20T00:59:44;1.67;;;0.40;;
9799;SDS011;4939;52.00085300;4.17406100;2023-07-20T01:02:09;2.45;;;0.75;;
9799;SDS011;4939;52.00085300;4.17406100;2023-07-20T01:04:35;1.25;;;0.50;;
9799;SDS011;4939;52.00085300;4.17406100;2023-07-20T01:09:48;0.57;;;0.40;;
9799;SDS011;4939;52.00085300;4.17406100;2023-07-20T01:12:22;1.27;;;0.50;;
9799;SDS011;4939;52.00085300;4.17406100;2023-07-20T01:14:51;1.25;;;0.60;;
9799;SDS011;4939;52.00085300;4.17406100;2023-07-20T01:17:17;1.88;;;0.60;;
9799;SDS011;4939;52.00085300;4.17406100;2023-07-20T01:19:44;1.20;;;0.40;;
9799;SDS011;4939;52.00085300;4.17406100;2023-07-20T01:30:48;1.85;;;0.32;;
9799;SDS011;4939;52.00085300;4.17406100;2023-07-20T01:33:25;0.40;;;0.30;;
9799;SDS011;4939;52.00085300;4.17406100;2023-07-20T01:35:55;1.42;;;0.30;;
9799;SDS011;4939;52.00085300;4.17406100;2023-07-20T01:38:23;1.13;;;0.30;;
9799;SDS011;4939;52.00085300;4.17406100;2023-07-20T01:40:49;0.77;;;0.28;;
9799;SDS011;4939;52.00085300;4.17406100;2023-07-20T01:43:16;1.73;;;0.30;;
9799;SDS011;4939;52.00085300;4.17406100;2023-07-20T01:45:43;1.48;;;0.30;;
9799;SDS011;4939;52.00085300;4.17406100;2023-07-20T01:48:08;1.73;;;0.30;;
9799;SDS011;4939;52.00085300;4.17406100;2023-07-20T01:50:34;1.08;;;0.30;;
9799;SDS011;4939;52.00085300;4.17406100;2023-07-20T01:53:00;0.55;;;0.28;;
9799;SDS011;4939;52.00085300;4.17406100;2023-07-20T01:55:26;2.00;;;0.30;;
9799;SDS011;4939;52.00085300;4.17406100;2023-07-20T01:57:52;0.40;;;0.30;;
9799;SDS011;4939;52.00085300;4.17406100;2023-07-20T02:00:18;1.13;;;0.40;;
9799;SDS011;4939;52.00085300;4.17406100;2023-07-20T02:02:46;0.73;;;0.40;;
9799;SDS011;4939;52.00085300;4.17406100;2023-07-20T02:05:13;2.13;;;0.50;;
9799;SDS011;4939;52.00085300;4.17406100;2023-07-20T02:07:39;1.35;;;0.60;;
9799;SDS011;4939;52.00085300;4.17406100;2023-07-20T02:10:04;1.58;;;0.40;;
9799;SDS011;4939;52.00085300;4.17406100;2023-07-20T02:12:30;1.55;;;0.60;;
9799;SDS011;4939;52.00085300;4.17406100;2023-07-20T02:14:56;1.13;;;0.60;;
9799;SDS011;4939;52.00085300;4.17406100;2023-07-20T02:17:22;1.20;;;0.70;;
9799;SDS011;4939;52.00085300;4.17406100;2023-07-20T02:19:50;1.17;;;0.93;;
9799;SDS011;4939;52.00085300;4.17406100;2023-07-20T02:22:20;1.33;;;0.80;;
9799;SDS011;4939;52.00085300;4.17406100;2023-07-20T02:24:46;3.05;;;1.00;;
9799;SDS011;4939;52.00085300;4.17406100;2023-07-20T02:27:12;1.65;;;0.80;;
9799;SDS011;4939;52.00085300;4.17406100;2023-07-20T02:29:37;1.95;;;1.08;;
9799;SDS011;4939;52.00085300;4.17406100;2023-07-20T02:32:03;2.47;;;1.00;;
9799;SDS011;4939;52.00085300;4.17406100;2023-07-20T02:34:29;1.42;;;1.00;;
9799;SDS011;4939;52.00085300;4.17406100;2023-07-20T02:36:55;1.95;;;1.20;;
9799;SDS011;4939;52.00085300;4.17406100;2023-07-20T02:39:26;1.42;;;0.93;;
9799;SDS011;4939;52.00085300;4.17406100;2023-07-20T02:41:53;3.13;;;1.40;;
9799;SDS011;4939;52.00085300;4.17406100;2023-07-20T02:44:19;2.08;;;1.20;;
9799;SDS011;4939;52.00085300;4.17406100;2023-07-20T02:46:45;5.82;;;1.40;;
9799;SDS011;4939;52.00085300;4.17406100;2023-07-20T02:49:10;3.22;;;1.40;;
9799;SDS011;4939;52.00085300;4.17406100;2023-07-20T02:51:38;2.75;;;1.23;;
9799;SDS011;4939;52.00085300;4.17406100;2023-07-20T02:54:04;1.92;;;1.33;;
9799;SDS011;4939;52.00085300;4.17406100;2023-07-20T02:56:30;3.90;;;1.58;;
9799;SDS011;4939;52.00085300;4.17406100;2023-07-20T02:58:55;4.07;;;1.50;;
9799;SDS011;4939;52.00085300;4.17406100;2023-07-20T03:01:22;3.05;;;1.45;;
9799;SDS011;4939;52.00085300;4.17406100;2023-07-20T03:03:48;3.53;;;1.50;;
9799;SDS011;4939;52.00085300;4.17406100;2023-07-20T03:06:15;3.60;;;1.70;;
9799;SDS011;4939;52.00085300;4.17406100;2023-07-20T03:08:41;3.78;;;1.77;;
9799;SDS011;4939;52.00085300;4.17406100;2023-07-20T03:11:12;4.85;;;1.80;;
9799;SDS011;4939;52.00085300;4.17406100;2023-07-20T03:13:40;3.97;;;1.55;;
9799;SDS011;4939;52.00085300;4.17406100;2023-07-20T03:16:06;5.07;;;1.40;;
9799;SDS011;4939;52.00085300;4.17406100;2023-07-20T03:18:36;5.82;;;1.90;;
9799;SDS011;4939;52.00085300;4.17406100;2023-07-20T03:21:03;3.10;;;1.73;;
9799;SDS011;4939;52.00085300;4.17406100;2023-07-20T03:23:29;3.83;;;1.80;;
9799;SDS011;4939;52.00085300;4.17406100;2023-07-20T03:25:55;5.05;;;1.80;;
9799;SDS011;4939;52.00085300;4.17406100;2023-07-20T03:28:21;2.42;;;1.30;;
9799;SDS011;4939;52.00085300;4.17406100;2023-07-20T03:30:46;3.25;;;1.65;;
9799;SDS011;4939;52.00085300;4.17406100;2023-07-20T03:35:44;4.30;;;1.80;;
9799;SDS011;4939;52.00085300;4.17406100;2023-07-20T03:38:10;4.68;;;1.73;;
9799;SDS011;4939;52.00085300;4.17406100;2023-07-20T03:40:36;3.15;;;1.80;;
9799;SDS011;4939;52.00085300;4.17406100;2023-07-20T03:43:01;3.45;;;1.83;;
9799;SDS011;4939;52.00085300;4.17406100;2023-07-20T03:45:28;4.00;;;1.90;;
9799;SDS011;4939;52.00085300;4.17406100;2023-07-20T03:47:53;4.20;;;2.17;;
9799;SDS011;4939;52.00085300;4.17406100;2023-07-20T03:50:19;5.43;;;2.20;;
9799;SDS011;4939;52.00085300;4.17406100;2023-07-20T03:52:45;6.35;;;2.00;;
9799;SDS011;4939;52.00085300;4.17406100;2023-07-20T03:55:10;4.47;;;2.00;;
9799;SDS011;4939;52.00085300;4.17406100;2023-07-20T03:57:36;3.00;;;1.95;;
9799;SDS011;4939;52.00085300;4.17406100;2023-07-20T04:00:02;4.78;;;2.20;;
9799;SDS011;4939;52.00085300;4.17406100;2023-07-20T04:02:31;4.75;;;2.30;;
9799;SDS011;4939;52.00085300;4.17406100;2023-07-20T04:04:57;5.45;;;2.08;;
9799;SDS011;4939;52.00085300;4.17406100;2023-07-20T04:07:23;2.95;;;1.77;;
9799;SDS011;4939;52.00085300;4.17406100;2023-07-20T04:09:48;4.38;;;2.40;;
9799;SDS011;4939;52.00085300;4.17406100;2023-07-20T04:12:14;6.32;;;1.75;;
9799;SDS011;4939;52.00085300;4.17406100;2023-07-20T04:14:40;4.50;;;1.50;;
9799;SDS011;4939;52.00085300;4.17406100;2023-07-20T04:17:05;4.25;;;1.73;;
9799;SDS011;4939;52.00085300;4.17406100;2023-07-20T04:19:31;2.85;;;1.60;;
9799;SDS011;4939;52.00085300;4.17406100;2023-07-20T04:21:57;3.80;;;1.60;;
9799;SDS011;4939;52.00085300;4.17406100;2023-07-20T04:24:22;3.05;;;1.50;;
9799;SDS011;4939;52.00085300;4.17406100;2023-07-20T04:26:48;2.47;;;1.48;;
9799;SDS011;4939;52.00085300;4.17406100;2023-07-20T04:29:13;4.50;;;1.55;;
9799;SDS011;4939;52.00085300;4.17406100;2023-07-20T04:31:39;3.05;;;1.50;;
9799;SDS011;4939;52.00085300;4.17406100;2023-07-20T04:34:05;3.92;;;1.52;;
9799;SDS011;4939;52.00085300;4.17406100;2023-07-20T04:36:30;2.97;;;1.63;;
9799;SDS011;4939;52.00085300;4.17406100;2023-07-20T04:38:56;3.30;;;1.60;;
9799;SDS011;4939;52.00085300;4.17406100;2023-07-20T04:41:21;5.00;;;1.50;;
9799;SDS011;4939;52.00085300;4.17406100;2023-07-20T04:43:47;2.45;;;1.20;;
9799;SDS011;4939;52.00085300;4.17406100;2023-07-20T04:46:13;4.35;;;1.60;;
9799;SDS011;4939;52.00085300;4.17406100;2023-07-20T04:48:39;2.72;;;1.40;;
9799;SDS011;4939;52.00085300;4.17406100;2023-07-20T04:51:05;3.58;;;1.52;;
9799;SDS011;4939;52.00085300;4.17406100;2023-07-20T04:53:31;3.00;;;1.40;;
9799;SDS011;4939;52.00085300;4.17406100;2023-07-20T04:55:57;4.10;;;1.55;;
9799;SDS011;4939;52.00085300;4.17406100;2023-07-20T04:58:23;3.83;;;1.60;;
9799;SDS011;4939;52.00085300;4.17406100;2023-07-20T05:00:49;5.43;;;2.08;;
9799;SDS011;4939;52.00085300;4.17406100;2023-07-20T05:03:14;2.80;;;1.40;;
9799;SDS011;4939;52.00085300;4.17406100;2023-07-20T05:05:40;3.38;;;1.50;;
9799;SDS011;4939;52.00085300;4.17406100;2023-07-20T05:08:06;3.22;;;1.50;;
9799;SDS011;4939;52.00085300;4.17406100;2023-07-20T05:10:32;2.85;;;1.60;;
9799;SDS011;4939;52.00085300;4.17406100;2023-07-20T05:12:58;1.83;;;1.15;;
9799;SDS011;4939;52.00085300;4.17406100;2023-07-20T05:15:24;3.92;;;1.30;;
9799;SDS011;4939;52.00085300;4.17406100;2023-07-20T05:17:49;5.70;;;1.23;;
9799;SDS011;4939;52.00085300;4.17406100;2023-07-20T05:20:15;2.08;;;1.30;;
9799;SDS011;4939;52.00085300;4.17406100;2023-07-20T05:22:41;2.78;;;1.40;;
9799;SDS011;4939;52.00085300;4.17406100;2023-07-20T05:25:08;5.78;;;1.23;;
9799;SDS011;4939;52.00085300;4.17406100;2023-07-20T05:27:38;3.20;;;1.33;;
9799;SDS011;4939;52.00085300;4.17406100;2023-07-20T05:30:05;2.00;;;0.90;;
9799;SDS011;4939;52.00085300;4.17406100;2023-07-20T05:32:32;2.92;;;1.30;;
9799;SDS011;4939;52.00085300;4.17406100;2023-07-20T05:34:58;2.53;;;1.10;;
9799;SDS011;4939;52.00085300;4.17406100;2023-07-20T05:37:24;3.63;;;1.27;;
9799;SDS011;4939;52.00085300;4.17406100;2023-07-20T05:39:50;1.98;;;1.48;;
9799;SDS011;4939;52.00085300;4.17406100;2023-07-20T05:42:16;2.10;;;1.50;;
9799;SDS011;4939;52.00085300;4.17406100;2023-07-20T05:44:42;2.83;;;1.60;;
9799;SDS011;4939;52.00085300;4.17406100;2023-07-20T05:47:07;2.17;;;1.02;;
9799;SDS011;4939;52.00085300;4.17406100;2023-07-20T05:49:34;2.38;;;1.10;;
9799;SDS011;4939;52.00085300;4.17406100;2023-07-20T05:52:00;2.22;;;0.95;;
9799;SDS011;4939;52.00085300;4.17406100;2023-07-20T05:54:26;1.77;;;1.00;;
9799;SDS011;4939;52.00085300;4.17406100;2023-07-20T05:56:52;2.55;;;0.90;;
9799;SDS011;4939;52.00085300;4.17406100;2023-07-20T05:59:18;1.67;;;0.93;;
9799;SDS011;4939;52.00085300;4.17406100;2023-07-20T06:01:48;2.33;;;1.02;;
9799;SDS011;4939;52.00085300;4.17406100;2023-07-20T06:04:14;2.75;;;1.10;;
9799;SDS011;4939;52.00085300;4.17406100;2023-07-20T06:06:40;2.50;;;0.80;;
9799;SDS011;4939;52.00085300;4.17406100;2023-07-20T06:09:06;1.52;;;0.80;;
9799;SDS011;4939;52.00085300;4.17406100;2023-07-20T06:11:37;2.30;;;1.02;;
9799;SDS011;4939;52.00085300;4.17406100;2023-07-20T06:14:05;1.58;;;0.80;;
9799;SDS011;4939;52.00085300;4.17406100;2023-07-20T06:16:31;3.90;;;0.98;;
9799;SDS011;4939;52.00085300;4.17406100;2023-07-20T06:18:58;3.05;;;1.00;;
9799;SDS011;4939;52.00085300;4.17406100;2023-07-20T06:21:24;2.20;;;0.80;;
9799;SDS011;4939;52.00085300;4.17406100;2023-07-20T06:23:50;1.48;;;0.70;;
9799;SDS011;4939;52.00085300;4.17406100;2023-07-20T06:26:16;2.03;;;0.80;;
9799;SDS011;4939;52.00085300;4.17406100;2023-07-20T06:28:41;1.35;;;0.82;;
9799;SDS011;4939;52.00085300;4.17406100;2023-07-20T06:31:07;2.63;;;0.90;;
9799;SDS011;4939;52.00085300;4.17406100;2023-07-20T06:33:33;1.65;;;1.00;;
9799;SDS011;4939;52.00085300;4.17406100;2023-07-20T06:35:59;2.83;;;0.90;;
9799;SDS011;4939;52.00085300;4.17406100;2023-07-20T06:38:28;1.65;;;1.00;;
9799;SDS011;4939;52.00085300;4.17406100;2023-07-20T06:40:54;2.22;;;0.90;;
9799;SDS011;4939;52.00085300;4.17406100;2023-07-20T06:43:20;1.20;;;0.70;;
9799;SDS011;4939;52.00085300;4.17406100;2023-07-20T06:45:50;2.40;;;0.90;;
9799;SDS011;4939;52.00085300;4.17406100;2023-07-20T06:48:17;2.30;;;0.95;;
9799;SDS011;4939;52.00085300;4.17406100;2023-07-20T06:50:43;1.75;;;0.90;;
9799;SDS011;4939;52.00085300;4.17406100;2023-07-20T06:53:08;2.15;;;0.60;;
9799;SDS011;4939;52.00085300;4.17406100;2023-07-20T06:55:36;3.15;;;0.90;;
9799;SDS011;4939;52.00085300;4.17406100;2023-07-20T06:58:01;2.42;;;0.88;;
9799;SDS011;4939;52.00085300;4.17406100;2023-07-20T07:00:28;1.70;;;0.70;;
9799;SDS011;4939;52.00085300;4.17406100;2023-07-20T07:02:53;2.00;;;0.95;;
9799;SDS011;4939;52.00085300;4.17406100;2023-07-20T07:05:19;4.15;;;1.00;;
9799;SDS011;4939;52.00085300;4.17406100;2023-07-20T07:07:45;1.42;;;0.63;;
9799;SDS011;4939;52.00085300;4.17406100;2023-07-20T07:10:10;1.33;;;0.90;;
9799;SDS011;4939;52.00085300;4.17406100;2023-07-20T07:12:36;1.33;;;0.70;;
9799;SDS011;4939;52.00085300;4.17406100;2023-07-20T07:15:02;2.55;;;1.05;;
9799;SDS011;4939;52.00085300;4.17406100;2023-07-20T07:17:31;1.08;;;0.70;;
9799;SDS011;4939;52.00085300;4.17406100;2023-07-20T07:19:57;2.20;;;0.68;;
9799;SDS011;4939;52.00085300;4.17406100;2023-07-20T07:22:23;0.90;;;0.70;;
9799;SDS011;4939;52.00085300;4.17406100;2023-07-20T07:24:50;1.17;;;0.80;;
9799;SDS011;4939;52.00085300;4.17406100;2023-07-20T07:27:15;2.05;;;0.75;;
9799;SDS011;4939;52.00085300;4.17406100;2023-07-20T07:29:42;1.63;;;0.57;;
9799;SDS011;4939;52.00085300;4.17406100;2023-07-20T07:32:10;2.03;;;0.55;;
9799;SDS011;4939;52.00085300;4.17406100;2023-07-20T07:34:36;0.82;;;0.65;;
9799;SDS011;4939;52.00085300;4.17406100;2023-07-20T07:37:03;2.08;;;0.80;;
9799;SDS011;4939;52.00085300;4.17406100;2023-07-20T07:39:29;1.88;;;0.65;;
9799;SDS011;4939;52.00085300;4.17406100;2023-07-20T07:41:55;1.77;;;0.68;;
9799;SDS011;4939;52.00085300;4.17406100;2023-07-20T07:44:21;1.17;;;0.80;;
9799;SDS011;4939;52.00085300;4.17406100;2023-07-20T07:46:47;1.70;;;0.80;;
9799;SDS011;4939;52.00085300;4.17406100;2023-07-20T07:49:14;1.85;;;0.68;;
9799;SDS011;4939;52.00085300;4.17406100;2023-07-20T07:51:40;0.88;;;0.60;;
9799;SDS011;4939;52.00085300;4.17406100;2023-07-20T07:54:06;0.90;;;0.70;;
9799;SDS011;4939;52.00085300;4.17406100;2023-07-20T07:56:31;2.53;;;0.75;;
9799;SDS011;4939;52.00085300;4.17406100;2023-07-20T07:58:57;1.30;;;0.65;;
9799;SDS011;4939;52.00085300;4.17406100;2023-07-20T08:01:23;1.38;;;0.70;;
9799;SDS011;4939;52.00085300;4.17406100;2023-07-20T08:03:48;1.77;;;0.60;;
9799;SDS011;4939;52.00085300;4.17406100;2023-07-20T08:06:14;1.08;;;0.60;;
9799;SDS011;4939;52.00085300;4.17406100;2023-07-20T08:08:40;2.75;;;0.68;;
9799;SDS011;4939;52.00085300;4.17406100;2023-07-20T08:11:07;1.27;;;0.73;;
9799;SDS011;4939;52.00085300;4.17406100;2023-07-20T08:13:33;1.33;;;0.70;;
9799;SDS011;4939;52.00085300;4.17406100;2023-07-20T08:16:00;1.98;;;0.60;;
9799;SDS011;4939;52.00085300;4.17406100;2023-07-20T08:18:29;1.33;;;0.77;;
9799;SDS011;4939;52.00085300;4.17406100;2023-07-20T08:20:55;1.38;;;0.70;;
9799;SDS011;4939;52.00085300;4.17406100;2023-07-20T08:23:21;1.98;;;0.50;;
9799;SDS011;4939;52.00085300;4.17406100;2023-07-20T08:25:47;1.27;;;0.70;;
9799;SDS011;4939;52.00085300;4.17406100;2023-07-20T08:28:14;2.92;;;0.80;;
9799;SDS011;4939;52.00085300;4.17406100;2023-07-20T08:30:43;1.40;;;0.60;;
9799;SDS011;4939;52.00085300;4.17406100;2023-07-20T08:33:13;1.75;;;0.60;;
9799;SDS011;4939;52.00085300;4.17406100;2023-07-20T08:35:39;1.70;;;0.80;;
9799;SDS011;4939;52.00085300;4.17406100;2023-07-20T08:38:06;2.33;;;0.70;;
9799;SDS011;4939;52.00085300;4.17406100;2023-07-20T08:40:33;0.60;;;0.40;;
9799;SDS011;4939;52.00085300;4.17406100;2023-07-20T08:43:03;18.42;;;1.67;;
9799;SDS011;4939;52.00085300;4.17406100;2023-07-20T08:45:29;1.25;;;0.60;;
9799;SDS011;4939;52.00085300;4.17406100;2023-07-20T08:47:58;1.35;;;0.50;;
9799;SDS011;4939;52.00085300;4.17406100;2023-07-20T08:50:30;1.30;;;0.40;;
9799;SDS011;4939;52.00085300;4.17406100;2023-07-20T08:52:56;0.80;;;0.60;;
9799;SDS011;4939;52.00085300;4.17406100;2023-07-20T08:55:27;1.25;;;0.52;;
9799;SDS011;4939;52.00085300;4.17406100;2023-07-20T08:57:54;1.23;;;0.60;;
9799;SDS011;4939;52.00085300;4.17406100;2023-07-20T09:00:21;1.17;;;0.57;;
9799;SDS011;4939;52.00085300;4.17406100;2023-07-20T09:02:49;5.72;;;0.88;;
9799;SDS011;4939;52.00085300;4.17406100;2023-07-20T09:05:17;0.75;;;0.50;;
9799;SDS011;4939;52.00085300;4.17406100;2023-07-20T09:07:43;1.55;;;0.60;;
9799;SDS011;4939;52.00085300;4.17406100;2023-07-20T09:10:09;1.27;;;0.60;;
9799;SDS011;4939;52.00085300;4.17406100;2023-07-20T09:12:39;0.80;;;0.40;;
9799;SDS011;4939;52.00085300;4.17406100;2023-07-20T09:15:06;1.52;;;0.77;;
9799;SDS011;4939;52.00085300;4.17406100;2023-07-20T09:17:33;1.15;;;0.68;;
9799;SDS011;4939;52.00085300;4.17406100;2023-07-20T09:19:59;0.80;;;0.60;;
9799;SDS011;4939;52.00085300;4.17406100;2023-07-20T09:22:30;1.00;;;0.60;;
9799;SDS011;4939;52.00085300;4.17406100;2023-07-20T09:24:57;1.45;;;0.70;;
9799;SDS011;4939;52.00085300;4.17406100;2023-07-20T09:27:36;1.35;;;0.65;;
9799;SDS011;4939;52.00085300;4.17406100;2023-07-20T09:30:03;1.08;;;0.65;;
9799;SDS011;4939;52.00085300;4.17406100;2023-07-20T09:32:32;1.20;;;0.60;;
9799;SDS011;4939;52.00085300;4.17406100;2023-07-20T09:35:06;1.30;;;0.50;;
9799;SDS011;4939;52.00085300;4.17406100;2023-07-20T09:37:32;1.98;;;0.50;;
9799;SDS011;4939;52.00085300;4.17406100;2023-07-20T09:39:58;0.98;;;0.50;;
9799;SDS011;4939;52.00085300;4.17406100;2023-07-20T09:42:24;1.48;;;0.60;;
9799;SDS011;4939;52.00085300;4.17406100;2023-07-20T09:44:52;1.98;;;0.80;;
9799;SDS011;4939;52.00085300;4.17406100;2023-07-20T09:47:24;1.85;;;0.68;;
9799;SDS011;4939;52.00085300;4.17406100;2023-07-20T09:49:57;1.08;;;0.50;;
9799;SDS011;4939;52.00085300;4.17406100;2023-07-20T09:52:25;1.90;;;0.70;;
9799;SDS011;4939;52.00085300;4.17406100;2023-07-20T09:54:50;0.93;;;0.50;;
9799;SDS011;4939;52.00085300;4.17406100;2023-07-20T09:57:16;1.85;;;0.50;;
9799;SDS011;4939;52.00085300;4.17406100;2023-07-20T09:59:42;2.58;;;0.60;;
9799;SDS011;4939;52.00085300;4.17406100;2023-07-20T10:02:11;1.35;;;0.40;;
9799;SDS011;4939;52.00085300;4.17406100;2023-07-20T10:04:52;0.98;;;0.50;;
9799;SDS011;4939;52.00085300;4.17406100;2023-07-20T10:07:19;0.47;;;0.40;;
9799;SDS011;4939;52.00085300;4.17406100;2023-07-20T10:09:48;1.20;;;0.47;;
9799;SDS011;4939;52.00085300;4.17406100;2023-07-20T10:12:15;1.05;;;0.60;;
9799;SDS011;4939;52.00085300;4.17406100;2023-07-20T10:14:42;0.90;;;0.50;;
9799;SDS011;4939;52.00085300;4.17406100;2023-07-20T10:17:15;1.48;;;0.60;;
9799;SDS011;4939;52.00085300;4.17406100;2023-07-20T10:19:42;1.00;;;0.57;;
9799;SDS011;4939;52.00085300;4.17406100;2023-07-20T10:22:13;1.83;;;0.50;;
9799;SDS011;4939;52.00085300;4.17406100;2023-07-20T10:24:44;0.68;;;0.50;;
9799;SDS011;4939;52.00085300;4.17406100;2023-07-20T10:27:12;0.60;;;0.40;;
9799;SDS011;4939;52.00085300;4.17406100;2023-07-20T10:29:39;1.30;;;0.50;;
9799;SDS011;4939;52.00085300;4.17406100;2023-07-20T10:32:06;1.63;;;0.60;;
9799;SDS011;4939;52.00085300;4.17406100;2023-07-20T10:34:33;1.02;;;0.50;;
9799;SDS011;4939;52.00085300;4.17406100;2023-07-20T10:36:59;1.58;;;0.47;;
9799;SDS011;4939;52.00085300;4.17406100;2023-07-20T10:39:26;1.08;;;0.47;;
9799;SDS011;4939;52.00085300;4.17406100;2023-07-20T10:44:29;1.27;;;0.50;;
9799;SDS011;4939;52.00085300;4.17406100;2023-07-20T10:46:59;0.90;;;0.50;;
9799;SDS011;4939;52.00085300;4.17406100;2023-07-20T10:49:33;0.70;;;0.50;;
9799;SDS011;4939;52.00085300;4.17406100;2023-07-20T10:52:04;1.02;;;0.60;;
9799;SDS011;4939;52.00085300;4.17406100;2023-07-20T10:54:34;1.35;;;0.50;;
9799;SDS011;4939;52.00085300;4.17406100;2023-07-20T10:59:49;0.77;;;0.40;;
9799;SDS011;4939;52.00085300;4.17406100;2023-07-20T11:02:17;0.85;;;0.50;;
9799;SDS011;4939;52.00085300;4.17406100;2023-07-20T11:04:44;1.08;;;0.50;;
9799;SDS011;4939;52.00085300;4.17406100;2023-07-20T11:07:14;1.05;;;0.50;;
9799;SDS011;4939;52.00085300;4.17406100;2023-07-20T11:09:41;1.20;;;0.68;;
9799;SDS011;4939;52.00085300;4.17406100;2023-07-20T11:12:11;1.40;;;0.50;;
9799;SDS011;4939;52.00085300;4.17406100;2023-07-20T11:14:52;0.95;;;0.52;;
9799;SDS011;4939;52.00085300;4.17406100;2023-07-20T11:17:28;1.13;;;0.60;;
9799;SDS011;4939;52.00085300;4.17406100;2023-07-20T11:19:55;1.38;;;0.60;;
9799;SDS011;4939;52.00085300;4.17406100;2023-07-20T11:22:28;1.15;;;0.50;;
9799;SDS011;4939;52.00085300;4.17406100;2023-07-20T11:24:59;0.85;;;0.50;;
9799;SDS011;4939;52.00085300;4.17406100;2023-07-20T11:27:24;0.90;;;0.50;;
9799;SDS011;4939;52.00085300;4.17406100;2023-07-20T11:29:50;1.88;;;0.70;;
9799;SDS011;4939;52.00085300;4.17406100;2023-07-20T11:32:25;0.95;;;0.60;;
9799;SDS011;4939;52.00085300;4.17406100;2023-07-20T11:34:51;1.05;;;0.50;;
9799;SDS011;4939;52.00085300;4.17406100;2023-07-20T11:37:17;0.90;;;0.50;;
9799;SDS011;4939;52.00085300;4.17406100;2023-07-20T11:39:43;1.17;;;0.40;;
9799;SDS011;4939;52.00085300;4.17406100;2023-07-20T11:42:09;0.90;;;0.50;;
9799;SDS011;4939;52.00085300;4.17406100;2023-07-20T11:44:35;1.65;;;0.60;;
9799;SDS011;4939;52.00085300;4.17406100;2023-07-20T11:47:04;1.60;;;0.40;;
9799;SDS011;4939;52.00085300;4.17406100;2023-07-20T11:49:51;1.17;;;0.52;;
9799;SDS011;4939;52.00085300;4.17406100;2023-07-20T11:52:19;1.20;;;0.50;;
9799;SDS011;4939;52.00085300;4.17406100;2023-07-20T11:55:20;1.50;;;0.57;;
9799;SDS011;4939;52.00085300;4.17406100;2023-07-20T11:58:19;0.88;;;0.45;;
9799;SDS011;4939;52.00085300;4.17406100;2023-07-20T12:01:18;0.95;;;0.50;;
9799;SDS011;4939;52.00085300;4.17406100;2023-07-20T12:04:17;1.00;;;0.50;;
9799;SDS011;4939;52.00085300;4.17406100;2023-07-20T12:07:15;0.82;;;0.50;;
9799;SDS011;4939;52.00085300;4.17406100;2023-07-20T12:10:13;1.70;;;0.50;;
9799;SDS011;4939;52.00085300;4.17406100;2023-07-20T12:13:11;0.90;;;0.45;;
9799;SDS011;4939;52.00085300;4.17406100;2023-07-20T12:16:15;1.23;;;0.65;;
9799;SDS011;4939;52.00085300;4.17406100;2023-07-20T12:19:16;1.38;;;0.50;;
9799;SDS011;4939;52.00085300;4.17406100;2023-07-20T12:22:14;0.52;;;0.40;;
9799;SDS011;4939;52.00085300;4.17406100;2023-07-20T12:25:12;0.45;;;0.30;;
9799;SDS011;4939;52.00085300;4.17406100;2023-07-20T12:27:38;1.60;;;0.60;;
9799;SDS011;4939;52.00085300;4.17406100;2023-07-20T12:30:05;1.23;;;0.50;;
9799;SDS011;4939;52.00085300;4.17406100;2023-07-20T12:32:32;0.98;;;0.57;;
9799;SDS011;4939;52.00085300;4.17406100;2023-07-20T12:34:58;0.75;;;0.40;;
9799;SDS011;4939;52.00085300;4.17406100;2023-07-20T12:37:25;1.38;;;0.50;;
9799;SDS011;4939;52.00085300;4.17406100;2023-07-20T12:39:51;1.27;;;0.60;;
9799;SDS011;4939;52.00085300;4.17406100;2023-07-20T12:42:17;1.27;;;0.50;;
9799;SDS011;4939;52.00085300;4.17406100;2023-07-20T12:44:44;1.42;;;0.60;;
9799;SDS011;4939;52.00085300;4.17406100;2023-07-20T12:47:10;0.60;;;0.47;;
9799;SDS011;4939;52.00085300;4.17406100;2023-07-20T12:49:36;0.47;;;0.40;;
9799;SDS011;4939;52.00085300;4.17406100;2023-07-20T12:52:02;1.70;;;0.43;;
9799;SDS011;4939;52.00085300;4.17406100;2023-07-20T12:54:29;1.33;;;0.50;;
9799;SDS011;4939;52.00085300;4.17406100;2023-07-20T12:56:54;1.20;;;0.60;;
9799;SDS011;4939;52.00085300;4.17406100;2023-07-20T12:59:20;1.20;;;0.60;;
9799;SDS011;4939;52.00085300;4.17406100;2023-07-20T13:01:46;0.70;;;0.60;;
9799;SDS011;4939;52.00085300;4.17406100;2023-07-20T13:04:11;1.25;;;0.60;;
9799;SDS011;4939;52.00085300;4.17406100;2023-07-20T13:06:38;1.23;;;0.40;;
9799;SDS011;4939;52.00085300;4.17406100;2023-07-20T13:09:04;1.92;;;0.50;;
9799;SDS011;4939;52.00085300;4.17406100;2023-07-20T13:11:30;0.65;;;0.40;;
9799;SDS011;4939;52.00085300;4.17406100;2023-07-20T13:13:55;1.50;;;0.60;;
9799;SDS011;4939;52.00085300;4.17406100;2023-07-20T13:16:21;0.82;;;0.50;;
9799;SDS011;4939;52.00085300;4.17406100;2023-07-20T13:18:47;0.90;;;0.50;;
9799;SDS011;4939;52.00085300;4.17406100;2023-07-20T13:21:13;0.70;;;0.50;;
9799;SDS011;4939;52.00085300;4.17406100;2023-07-20T13:23:38;0.77;;;0.40;;
9799;SDS011;4939;52.00085300;4.17406100;2023-07-20T13:26:04;1.05;;;0.50;;
9799;SDS011;4939;52.00085300;4.17406100;2023-07-20T13:28:30;0.85;;;0.40;;
9799;SDS011;4939;52.00085300;4.17406100;2023-07-20T13:30:56;0.65;;;0.45;;
9799;SDS011;4939;52.00085300;4.17406100;2023-07-20T13:33:21;2.10;;;0.55;;
9799;SDS011;4939;52.00085300;4.17406100;2023-07-20T13:35:47;1.02;;;0.50;;